createdAt,value
2022-12-23T00:00:42.356Z,39.38
2022-12-23T00:03:09.214Z,36.83
2022-12-23T00:05:38.596Z,37.60
2022-12-23T00:08:06.619Z,37.40
2022-12-23T00:10:34.994Z,35.65
2022-12-23T00:13:20.046Z,35.60
2022-12-23T00:15:46.737Z,35.42
2022-12-23T00:18:13.433Z,36.78
2022-12-23T00:20:40.139Z,37.58
2022-12-23T00:23:07.197Z,37.60
2022-12-23T00:25:42.332Z,38.22
2022-12-23T00:28:14.295Z,36.13
2022-12-23T00:31:04.175Z,37.75
2022-12-23T00:33:32.934Z,38.28
2022-12-23T00:35:59.750Z,40.50
2022-12-23T00:38:45.782Z,40.05
2022-12-23T00:41:36.350Z,36.08
2022-12-23T00:44:04.309Z,36.85
2022-12-23T00:46:31.595Z,35.67
2022-12-23T00:49:17.012Z,35.80
2022-12-23T00:51:43.664Z,35.30
2022-12-23T00:54:10.447Z,33.65
2022-12-23T00:56:37.089Z,35.83
2022-12-23T00:59:04.183Z,42.35
2022-12-23T01:01:49.386Z,42.28
2022-12-23T01:04:36.033Z,45.45
2022-12-23T01:07:02.932Z,43.17
2022-12-23T01:09:29.811Z,44.40
2022-12-23T01:11:57.356Z,42.72
2022-12-23T01:14:24.168Z,41.75
2022-12-23T01:16:50.935Z,40.47
2022-12-23T01:19:17.764Z,43.60
2022-12-23T01:21:44.478Z,41.55
2022-12-23T01:24:11.290Z,40.03
2022-12-23T01:26:37.997Z,38.83
2022-12-23T01:29:04.880Z,37.78
2022-12-23T01:31:31.974Z,39.53
2022-12-23T01:33:58.698Z,39.10
2022-12-23T01:36:25.387Z,45.13
2022-12-23T01:38:52.115Z,37.38
2022-12-23T01:41:40.386Z,38.42
2022-12-23T01:44:44.967Z,40.30
2022-12-23T01:47:15.269Z,38.20
2022-12-23T01:49:42.220Z,39.30
2022-12-23T01:52:09.356Z,41.83
2022-12-23T01:54:37.200Z,43.25
2022-12-23T01:57:04.169Z,42.55
2022-12-23T01:59:49.426Z,45.72
2022-12-23T02:02:34.770Z,39.42
2022-12-23T02:05:01.831Z,42.75
2022-12-23T02:07:47.214Z,39.58
2022-12-23T02:10:14.022Z,36.88
2022-12-23T02:12:49.796Z,44.13
2022-12-23T02:18:46.073Z,44.22
2022-12-23T02:21:24.766Z,39.95
2022-12-23T02:24:15.859Z,43.72
2022-12-23T02:27:13.070Z,44.15
2022-12-23T02:29:49.300Z,44.40
2022-12-23T02:32:51.331Z,46.45
2022-12-23T02:36:12.253Z,44.83
2022-12-23T02:38:53.313Z,45.42
2022-12-23T02:41:24.854Z,50.40
2022-12-23T02:44:10.387Z,49.17
2022-12-23T02:46:43.037Z,49.92
2022-12-23T02:49:22.191Z,51.33
2022-12-23T02:51:51.191Z,48.92
2022-12-23T02:54:28.347Z,49.50
2022-12-23T02:56:55.620Z,49.17
2022-12-23T02:59:25.988Z,47.30
2022-12-23T03:01:54.078Z,53.60
2022-12-23T03:04:21.430Z,55.33
2022-12-23T03:06:51.588Z,51.65
2022-12-23T03:09:30.351Z,53.50
2022-12-23T03:12:10.780Z,56.42
2022-12-23T03:15:14.994Z,53.70
2022-12-23T03:17:48.569Z,52.30
2022-12-23T03:20:20.606Z,57.13
2022-12-23T03:22:50.571Z,51.28
2022-12-23T03:25:23.228Z,54.85
2022-12-23T03:28:09.069Z,56.78
2022-12-23T03:30:37.104Z,55.97
2022-12-23T03:33:19.923Z,56.25
2022-12-23T03:35:53.909Z,55.55
2022-12-23T03:38:22.107Z,56.65
2022-12-23T03:40:52.438Z,56.13
2022-12-23T03:43:23.436Z,55.75
2022-12-23T03:45:54.697Z,53.20
2022-12-23T03:48:26.396Z,55.85
2022-12-23T03:50:57.196Z,51.30
2022-12-23T03:53:28.482Z,51.97
2022-12-23T03:56:07.888Z,50.30
2022-12-23T03:58:39.729Z,52.15
2022-12-23T04:01:24.937Z,50.60
2022-12-23T04:04:02.604Z,48.63
2022-12-23T04:06:36.381Z,45.28
2022-12-23T04:09:04.650Z,46.30
2022-12-23T04:11:31.401Z,45.83
2022-12-23T04:14:00.682Z,44.92
2022-12-23T04:16:28.913Z,43.47
2022-12-23T04:18:55.861Z,45.75
2022-12-23T04:21:22.584Z,48.90
2022-12-23T04:23:49.307Z,44.22
2022-12-23T04:26:15.939Z,47.25
2022-12-23T04:28:42.619Z,48.42
2022-12-23T04:31:09.376Z,46.05
2022-12-23T04:33:36.177Z,44.55
2022-12-23T04:36:03.101Z,52.05
2022-12-23T04:38:29.853Z,48.25
2022-12-23T04:40:56.575Z,54.53
2022-12-23T04:43:23.286Z,58.83
2022-12-23T04:45:51.575Z,51.30
2022-12-23T04:48:18.884Z,46.78
2022-12-23T04:50:45.609Z,46.13
2022-12-23T04:53:12.328Z,43.47
2022-12-23T04:55:39.018Z,44.33
2022-12-23T04:58:05.693Z,44.60
2022-12-23T05:00:38.917Z,46.08
2022-12-23T05:03:06.352Z,47.03
2022-12-23T05:05:33.154Z,46.95
2022-12-23T05:08:04.956Z,45.08
2022-12-23T05:10:32.243Z,44.03
2022-12-23T05:12:59.133Z,51.97
2022-12-23T05:15:25.873Z,51.10
2022-12-23T05:17:52.558Z,51.08
2022-12-23T05:20:19.243Z,48.17
2022-12-23T05:22:45.983Z,50.72
2022-12-23T05:25:12.643Z,49.15
2022-12-23T05:27:39.403Z,46.20
2022-12-23T05:30:07.429Z,46.03
2022-12-23T05:32:34.196Z,46.90
2022-12-23T05:35:00.872Z,60.13
2022-12-23T05:37:27.654Z,50.05
2022-12-23T05:39:54.301Z,45.22
2022-12-23T05:42:20.964Z,47.78
2022-12-23T05:44:47.875Z,46.72
2022-12-23T05:47:14.568Z,49.75
2022-12-23T05:49:41.237Z,51.83
2022-12-23T05:52:07.951Z,45.28
2022-12-23T05:54:34.643Z,44.75
2022-12-23T05:57:01.462Z,44.33
2022-12-23T05:59:31.291Z,47.38
2022-12-23T06:01:58.689Z,47.40
2022-12-23T06:04:25.611Z,46.13
2022-12-23T06:06:52.341Z,46.78
2022-12-23T06:09:19.022Z,52.20
2022-12-23T06:11:45.709Z,58.15
2022-12-23T06:14:12.557Z,54.22
2022-12-23T06:16:39.259Z,51.53
2022-12-23T06:19:05.945Z,51.22
2022-12-23T06:21:32.768Z,52.83
2022-12-23T06:23:59.465Z,56.75
2022-12-23T06:26:26.508Z,57.20
2022-12-23T06:28:53.142Z,53.42
2022-12-23T06:31:19.897Z,59.28
2022-12-23T06:33:46.623Z,55.30
2022-12-23T06:36:13.318Z,52.15
2022-12-23T06:38:40.058Z,58.38
2022-12-23T06:41:07.761Z,55.13
2022-12-23T06:43:34.405Z,47.63
2022-12-23T06:46:01.115Z,51.95
2022-12-23T06:48:27.887Z,59.00
2022-12-23T06:50:54.563Z,56.13
2022-12-23T06:53:21.371Z,58.90
2022-12-23T06:55:48.050Z,54.50
2022-12-23T06:58:14.820Z,54.03
2022-12-23T07:00:41.514Z,54.92
2022-12-23T07:03:08.459Z,54.65
2022-12-23T07:05:37.746Z,51.90
2022-12-23T07:08:05.269Z,53.63
2022-12-23T07:10:31.980Z,51.78
2022-12-23T07:12:58.645Z,57.85
2022-12-23T07:15:25.344Z,60.42
2022-12-23T07:17:52.068Z,59.20
2022-12-23T07:20:18.985Z,57.20
2022-12-23T07:22:45.881Z,56.83
2022-12-23T07:25:12.633Z,53.85
2022-12-23T07:27:39.288Z,51.33
2022-12-23T07:30:06.777Z,53.65
2022-12-23T07:32:33.502Z,52.00
2022-12-23T07:35:00.150Z,53.40
2022-12-23T07:37:26.811Z,52.58
2022-12-23T07:39:53.506Z,56.47
2022-12-23T07:45:07.509Z,54.22
2022-12-23T07:47:34.170Z,58.80
2022-12-23T07:50:00.835Z,63.67
2022-12-23T07:52:28.650Z,68.28
2022-12-23T07:54:55.353Z,74.47
2022-12-23T07:57:22.057Z,63.30
2022-12-23T07:59:48.682Z,65.38
2022-12-23T08:02:15.582Z,57.72
2022-12-23T08:04:45.998Z,61.38
2022-12-23T08:07:13.098Z,58.22
2022-12-23T08:09:39.857Z,55.85
2022-12-23T08:12:06.921Z,51.30
2022-12-23T08:14:33.617Z,53.17
2022-12-23T08:17:00.356Z,54.17
2022-12-23T08:19:27.078Z,62.05
2022-12-23T08:21:53.784Z,53.63
2022-12-23T08:24:20.465Z,52.03
2022-12-23T08:26:47.113Z,52.63
2022-12-23T08:29:13.802Z,53.13
2022-12-23T08:31:40.488Z,56.10
2022-12-23T08:34:07.191Z,51.60
2022-12-23T08:36:36.037Z,50.20
2022-12-23T08:39:09.719Z,47.38
2022-12-23T08:41:42.656Z,48.17
2022-12-23T08:44:09.369Z,48.03
2022-12-23T08:46:37.054Z,48.97
2022-12-23T08:49:05.146Z,50.00
2022-12-23T08:51:32.779Z,48.90
2022-12-23T08:54:01.429Z,52.35
2022-12-23T08:56:31.027Z,54.03
2022-12-23T09:01:26.713Z,56.80
2022-12-23T09:03:53.630Z,55.72
2022-12-23T09:06:30.462Z,56.33
2022-12-23T09:08:58.042Z,56.85
2022-12-23T09:11:26.375Z,55.63
2022-12-23T09:13:53.593Z,55.60
2022-12-23T09:16:20.626Z,52.53
2022-12-23T09:18:47.347Z,55.33
2022-12-23T09:21:19.840Z,60.42
2022-12-23T09:23:46.624Z,68.43
2022-12-23T09:26:24.931Z,70.55
2022-12-23T09:28:51.674Z,51.40
2022-12-23T09:31:18.772Z,52.45
2022-12-23T09:33:49.966Z,53.33
2022-12-23T09:36:17.282Z,49.58
2022-12-23T09:38:44.327Z,50.05
2022-12-23T09:41:10.920Z,48.75
2022-12-23T09:43:40.176Z,45.92
2022-12-23T09:48:40.804Z,45.65
2022-12-23T09:51:09.202Z,47.50
2022-12-23T09:53:54.513Z,49.45
2022-12-23T09:56:45.679Z,44.95
2022-12-23T09:59:35.779Z,45.28
2022-12-23T10:02:11.505Z,41.58
2022-12-23T10:05:14.010Z,41.70
2022-12-23T10:07:46.286Z,42.13
2022-12-23T10:10:35.834Z,45.33
2022-12-23T10:13:06.131Z,39.03
2022-12-23T10:15:40.413Z,39.00
2022-12-23T10:18:33.878Z,39.35
2022-12-23T10:21:04.760Z,41.53
2022-12-23T10:23:38.223Z,34.90
2022-12-23T10:26:20.347Z,35.80
2022-12-23T10:28:47.216Z,31.02
2022-12-23T10:34:20.100Z,26.58
2022-12-23T10:36:55.670Z,22.65
2022-12-23T10:39:34.637Z,26.33
2022-12-23T10:42:36.462Z,25.48
2022-12-23T10:45:28.144Z,23.77
2022-12-23T10:48:24.482Z,22.27
2022-12-23T10:50:56.117Z,21.90
2022-12-23T10:53:45.856Z,26.92
2022-12-23T10:56:12.995Z,27.10
2022-12-23T10:58:44.498Z,28.13
2022-12-23T11:01:21.737Z,28.65
2022-12-23T11:04:05.978Z,28.08
2022-12-23T11:06:37.809Z,27.52
2022-12-23T11:09:05.751Z,26.30
2022-12-23T11:12:01.770Z,28.85
2022-12-23T11:14:35.842Z,28.13
2022-12-23T11:17:04.350Z,26.60
2022-12-23T11:19:31.448Z,30.23
2022-12-23T11:21:59.992Z,27.33
2022-12-23T11:24:28.743Z,26.27
2022-12-23T11:27:06.668Z,23.55
2022-12-23T11:29:35.513Z,24.55
2022-12-23T11:32:04.032Z,24.95
2022-12-23T11:34:37.530Z,24.80
2022-12-23T11:37:07.480Z,24.02
2022-12-23T11:39:37.020Z,24.90
2022-12-23T11:42:06.823Z,23.60
2022-12-23T11:44:36.666Z,23.92
2022-12-23T11:47:41.061Z,23.15
2022-12-23T11:50:28.570Z,21.50
2022-12-23T11:53:16.959Z,27.85
2022-12-23T11:56:06.293Z,26.58
2022-12-23T11:59:28.477Z,21.73
2022-12-23T12:01:58.591Z,20.83
2022-12-23T12:04:26.769Z,20.25
2022-12-23T12:06:56.554Z,19.65
2022-12-23T12:09:24.325Z,17.95
2022-12-23T12:12:14.073Z,20.52
2022-12-23T12:14:47.254Z,19.55
2022-12-23T12:17:42.485Z,17.92
2022-12-23T12:20:28.454Z,19.70
2022-12-23T12:22:59.432Z,18.63
2022-12-23T12:25:49.269Z,19.60
2022-12-23T12:28:22.838Z,21.50
2022-12-23T12:30:58.035Z,22.58
2022-12-23T12:33:54.930Z,28.88
2022-12-23T12:36:30.586Z,30.27
2022-12-23T12:38:58.959Z,29.77
2022-12-23T12:41:28.402Z,28.50
2022-12-23T12:44:05.272Z,28.42
2022-12-23T12:46:41.060Z,30.02
2022-12-23T12:49:26.090Z,28.30
2022-12-23T12:52:13.952Z,29.17
2022-12-23T12:54:55.795Z,28.20
2022-12-23T12:57:23.401Z,27.27
2022-12-23T13:00:03.610Z,26.67
2022-12-23T13:02:41.079Z,25.70
2022-12-23T13:05:19.384Z,26.83
2022-12-23T13:07:56.553Z,27.63
2022-12-23T13:10:47.470Z,26.42
2022-12-23T13:13:24.175Z,27.38
2022-12-23T13:16:30.614Z,27.70
2022-12-23T13:19:12.090Z,28.30
2022-12-23T13:22:07.071Z,25.65
2022-12-23T13:24:46.032Z,28.35
2022-12-23T13:27:20.221Z,26.98
2022-12-23T13:30:13.174Z,25.90
2022-12-23T13:33:07.365Z,23.52
2022-12-23T13:36:04.922Z,22.10
2022-12-23T13:39:09.470Z,24.80
2022-12-23T13:41:41.537Z,25.27
2022-12-23T13:44:13.655Z,23.83
2022-12-23T13:46:55.880Z,26.45
2022-12-23T13:49:47.054Z,26.88
2022-12-23T13:52:20.791Z,30.73
2022-12-23T13:55:25.120Z,28.35
2022-12-23T13:58:14.864Z,30.20
2022-12-23T14:00:41.835Z,29.67
2022-12-23T14:03:14.450Z,28.00
2022-12-23T14:05:47.069Z,24.73
2022-12-23T14:08:40.094Z,26.80
2022-12-23T14:11:15.751Z,27.75
2022-12-23T14:13:51.655Z,25.40
2022-12-23T14:16:21.082Z,18.95
2022-12-23T14:19:13.682Z,20.20
2022-12-23T14:22:09.144Z,19.98
2022-12-23T14:24:50.284Z,22.02
2022-12-23T14:27:45.807Z,22.52
2022-12-23T14:30:37.981Z,21.40
2022-12-23T14:33:28.386Z,22.30
2022-12-23T14:36:21.301Z,24.92
2022-12-23T14:39:12.942Z,29.60
2022-12-23T14:41:53.194Z,32.25
2022-12-23T14:44:38.141Z,32.08
2022-12-23T14:47:35.032Z,35.53
2022-12-23T14:50:32.701Z,38.47
2022-12-23T14:53:00.851Z,36.55
2022-12-23T14:55:30.917Z,35.03
2022-12-23T14:58:17.210Z,34.47
2022-12-23T15:00:53.097Z,31.42
2022-12-23T15:03:20.717Z,31.52
2022-12-23T15:05:47.641Z,26.83
2022-12-23T15:08:50.137Z,29.42
2022-12-23T15:11:29.699Z,31.30
2022-12-23T15:13:59.542Z,28.98
2022-12-23T15:16:34.324Z,31.33
2022-12-23T15:19:22.878Z,29.17
2022-12-23T15:21:58.178Z,29.95
2022-12-23T15:24:27.054Z,31.67
2022-12-23T15:27:24.538Z,32.60
2022-12-23T15:29:44.326Z,31.30
2022-12-23T15:32:11.582Z,30.40
2022-12-23T15:34:38.252Z,35.08
2022-12-23T15:37:11.534Z,33.38
2022-12-23T15:39:41.332Z,36.30
2022-12-23T15:42:24.404Z,43.75
2022-12-23T15:44:51.398Z,42.50
2022-12-23T15:47:42.387Z,43.30
2022-12-23T15:50:15.492Z,41.65
2022-12-23T15:52:43.651Z,38.65
2022-12-23T15:55:28.276Z,39.45
2022-12-23T15:57:55.047Z,40.35
2022-12-23T16:00:31.653Z,50.45
2022-12-23T16:03:00.933Z,48.50
2022-12-23T16:05:33.882Z,55.65
2022-12-23T16:08:16.428Z,57.42
2022-12-23T16:10:55.914Z,59.13
2022-12-23T16:13:22.622Z,56.17
2022-12-23T16:15:49.341Z,54.50
2022-12-23T16:18:31.720Z,57.53
2022-12-23T16:21:02.734Z,63.55
2022-12-23T16:23:30.705Z,68.00
2022-12-23T16:25:59.675Z,60.97
2022-12-23T16:28:36.011Z,56.72
2022-12-23T16:31:06.289Z,57.60
2022-12-23T16:36:18.619Z,50.10
2022-12-23T16:38:46.704Z,55.35
2022-12-23T16:41:13.440Z,52.55
2022-12-23T16:43:44.575Z,53.88
2022-12-23T16:46:20.462Z,58.78
2022-12-23T16:48:56.057Z,58.35
2022-12-23T16:53:51.841Z,51.63
2022-12-23T16:56:21.241Z,52.92
2022-12-23T17:01:14.614Z,52.70
2022-12-23T17:03:41.395Z,55.83
2022-12-23T17:06:15.531Z,53.97
2022-12-23T17:08:42.442Z,48.80
2022-12-23T17:11:17.458Z,53.03
2022-12-23T17:13:45.139Z,52.92
2022-12-23T17:16:22.246Z,47.78
2022-12-23T17:18:53.124Z,47.45
2022-12-23T17:21:26.753Z,49.97
2022-12-23T17:23:56.778Z,56.00
2022-12-23T17:26:23.493Z,54.08
2022-12-23T17:28:50.308Z,55.95
2022-12-23T17:31:26.224Z,56.67
2022-12-23T17:33:54.429Z,59.03
2022-12-23T17:36:21.633Z,60.47
2022-12-23T17:38:48.325Z,61.75
2022-12-23T17:41:28.317Z,63.42
2022-12-23T17:43:55.367Z,70.32
2022-12-23T17:46:22.307Z,72.47
2022-12-23T17:48:49.253Z,71.55
2022-12-23T17:51:17.536Z,71.38
2022-12-23T17:53:45.168Z,71.38
2022-12-23T17:56:19.794Z,72.47
2022-12-23T17:58:48.238Z,91.30
2022-12-23T18:01:33.049Z,80.75
2022-12-23T18:04:00.326Z,86.47
2022-12-23T18:06:28.779Z,89.07
2022-12-23T18:08:57.564Z,96.20
2022-12-23T18:11:27.090Z,82.25
2022-12-23T18:13:54.090Z,79.40
2022-12-23T18:16:20.852Z,72.03
2022-12-23T18:18:47.770Z,63.22
2022-12-23T18:21:20.069Z,67.15
2022-12-23T18:23:46.823Z,60.00
2022-12-23T18:26:17.779Z,59.40
2022-12-23T18:28:44.625Z,61.55
2022-12-23T18:31:17.747Z,65.13
2022-12-23T18:33:44.509Z,67.32
2022-12-23T18:36:31.329Z,57.58
2022-12-23T18:38:58.266Z,56.05
2022-12-23T18:41:26.337Z,52.38
2022-12-23T18:43:53.456Z,55.15
2022-12-23T18:46:20.390Z,57.05
2022-12-23T18:48:47.618Z,58.47
2022-12-23T18:51:15.873Z,52.17
2022-12-23T18:53:43.727Z,57.30
2022-12-23T18:56:14.686Z,58.88
2022-12-23T18:58:41.480Z,62.10
2022-12-23T19:01:12.752Z,73.47
2022-12-23T19:03:39.612Z,71.07
2022-12-23T19:06:08.312Z,66.00
2022-12-23T19:08:36.544Z,67.97
2022-12-23T19:11:12.842Z,63.15
2022-12-23T19:13:39.725Z,60.65
2022-12-23T19:16:06.594Z,61.28
2022-12-23T19:18:33.302Z,60.17
2022-12-23T19:21:04.069Z,65.88
2022-12-23T19:23:30.727Z,59.08
2022-12-23T19:25:57.389Z,63.53
2022-12-23T19:28:24.176Z,69.30
2022-12-23T19:30:51.191Z,57.60
2022-12-23T19:33:17.957Z,60.92
2022-12-23T19:35:44.620Z,68.03
2022-12-23T19:38:12.452Z,57.78
2022-12-23T19:40:39.594Z,56.88
2022-12-23T19:43:06.302Z,60.63
2022-12-23T19:45:32.970Z,61.25
2022-12-23T19:47:59.653Z,57.65
2022-12-23T19:50:27.316Z,52.70
2022-12-23T19:52:56.468Z,56.42
2022-12-23T19:55:23.601Z,54.25
2022-12-23T19:57:50.337Z,55.88
2022-12-23T20:00:18.181Z,56.13
2022-12-23T20:02:44.922Z,53.40
2022-12-23T20:05:11.622Z,55.63
2022-12-23T20:07:38.359Z,52.45
2022-12-23T20:10:05.847Z,57.05
2022-12-23T20:12:33.046Z,57.53
2022-12-23T20:14:59.852Z,56.80
2022-12-23T20:17:26.594Z,58.92
2022-12-23T20:19:53.296Z,57.70
2022-12-23T20:22:20.014Z,54.45
2022-12-23T20:24:46.709Z,55.05
2022-12-23T20:27:15.896Z,54.85
2022-12-23T20:29:42.980Z,58.15
2022-12-23T20:32:09.828Z,53.70
2022-12-23T20:34:39.530Z,56.72
2022-12-23T20:37:07.739Z,60.38
2022-12-23T20:39:34.755Z,55.90
2022-12-23T20:42:01.433Z,57.55
2022-12-23T20:44:36.982Z,51.97
2022-12-23T20:47:05.587Z,57.58
2022-12-23T20:49:32.393Z,59.35
2022-12-23T20:51:59.181Z,55.42
2022-12-23T20:54:32.152Z,59.42
2022-12-23T20:57:00.473Z,55.92
2022-12-23T20:59:27.237Z,55.15
2022-12-23T21:01:54.046Z,57.58
2022-12-23T21:04:20.987Z,56.45
2022-12-23T21:06:47.679Z,59.72
2022-12-23T21:09:15.585Z,59.33
2022-12-23T21:11:43.768Z,66.05
2022-12-23T21:14:10.991Z,68.57
2022-12-23T21:16:38.499Z,74.43
2022-12-23T21:19:06.674Z,79.50
2022-12-23T21:21:34.085Z,78.22
2022-12-23T21:24:04.549Z,71.90
2022-12-23T21:26:32.672Z,68.93
2022-12-23T21:29:01.041Z,69.00
2022-12-23T21:31:29.310Z,67.75
2022-12-23T21:33:56.633Z,73.55
2022-12-23T21:36:25.936Z,67.85
2022-12-23T21:41:31.156Z,52.80
2022-12-23T21:43:59.249Z,47.15
2022-12-23T21:46:27.325Z,49.58
2022-12-23T21:48:55.576Z,49.60
2022-12-23T21:51:31.801Z,52.67
2022-12-23T21:54:03.606Z,51.53
2022-12-23T21:56:31.312Z,53.60
2022-12-23T21:58:59.763Z,52.50
2022-12-23T22:01:26.941Z,49.67
2022-12-23T22:03:56.105Z,55.20
2022-12-23T22:06:35.965Z,57.03
2022-12-23T22:09:03.767Z,56.92
2022-12-23T22:11:32.274Z,52.83
2022-12-23T22:14:01.638Z,50.78
2022-12-23T22:16:29.399Z,52.25
2022-12-23T22:18:57.278Z,48.40
2022-12-23T22:21:24.958Z,47.90
2022-12-23T22:23:52.773Z,46.03
2022-12-23T22:26:25.345Z,45.05
2022-12-23T22:28:52.953Z,47.40
2022-12-23T22:31:36.068Z,45.50
2022-12-23T22:34:03.224Z,44.60
2022-12-23T22:36:30.079Z,41.30
2022-12-23T22:38:58.806Z,43.25
2022-12-23T22:41:27.969Z,42.88
2022-12-23T22:43:55.327Z,43.10
2022-12-23T22:46:22.772Z,42.80
2022-12-23T22:48:49.635Z,42.50
2022-12-23T22:51:18.835Z,43.17
2022-12-23T22:53:46.095Z,43.17
2022-12-23T22:56:14.340Z,46.65
2022-12-23T22:58:41.190Z,46.03
2022-12-23T23:01:24.188Z,46.50
2022-12-23T23:03:57.017Z,44.95
2022-12-23T23:06:34.700Z,43.55
2022-12-23T23:09:01.728Z,45.30
2022-12-23T23:11:28.872Z,44.95
2022-12-23T23:13:55.830Z,44.72
2022-12-23T23:16:23.112Z,43.40
2022-12-23T23:18:50.985Z,43.63
2022-12-23T23:21:18.041Z,42.42
2022-12-23T23:23:44.752Z,43.78
2022-12-23T23:26:12.156Z,41.05
2022-12-23T23:28:39.579Z,41.67
2022-12-23T23:31:40.021Z,42.65
2022-12-23T23:33:53.713Z,41.25
2022-12-23T23:36:20.568Z,42.88
2022-12-23T23:38:47.259Z,47.75
2022-12-23T23:41:17.412Z,40.45
2022-12-23T23:43:49.024Z,40.97
2022-12-23T23:46:15.808Z,40.88
2022-12-23T23:48:42.483Z,41.55
2022-12-23T23:51:09.204Z,41.28
2022-12-23T23:53:35.990Z,40.63
2022-12-23T23:56:05.129Z,40.65
2022-12-23T23:58:33.060Z,39.22
